createdAt,value
2023-05-11T00:03:56.611Z,7.97
2023-05-11T00:09:02.151Z,7.89
2023-05-11T00:14:07.708Z,7.82
2023-05-11T00:19:13.076Z,7.70
2023-05-11T00:24:18.572Z,7.54
2023-05-11T00:29:23.840Z,7.38
2023-05-11T00:34:29.438Z,7.20
2023-05-11T00:39:40.460Z,6.97
2023-05-11T00:44:46.150Z,6.85
2023-05-11T00:49:53.975Z,6.66
2023-05-11T00:54:59.481Z,6.59
2023-05-11T01:00:07.666Z,6.54
2023-05-11T01:05:13.459Z,6.49
2023-05-11T01:10:28.218Z,6.39
2023-05-11T01:15:41.868Z,6.35
2023-05-11T01:20:53.262Z,6.27
2023-05-11T01:26:16.992Z,6.01
2023-05-11T01:31:24.550Z,5.70
2023-05-11T01:36:33.918Z,5.45
2023-05-11T01:41:42.014Z,5.23
2023-05-11T01:46:49.033Z,5.02
2023-05-11T01:51:56.041Z,4.88
2023-05-11T01:57:02.899Z,4.94
2023-05-11T02:02:10.175Z,5.01
2023-05-11T02:07:19.057Z,4.93
2023-05-11T02:12:25.675Z,4.90
2023-05-11T02:17:32.394Z,4.82
2023-05-11T02:22:39.419Z,4.60
2023-05-11T02:27:45.040Z,4.43
2023-05-11T02:32:54.972Z,4.33
2023-05-11T02:38:04.488Z,4.23
2023-05-11T02:43:11.557Z,4.15
2023-05-11T02:48:26.675Z,4.03
2023-05-11T02:53:33.679Z,4.07
2023-05-11T02:58:39.660Z,4.02
2023-05-11T03:03:58.161Z,3.97
2023-05-11T03:09:07.179Z,3.97
2023-05-11T03:14:14.163Z,3.98
2023-05-11T03:19:29.754Z,4.00
2023-05-11T03:24:36.356Z,4.03
2023-05-11T03:29:47.071Z,4.07
2023-05-11T03:34:55.679Z,4.19
2023-05-11T03:40:03.395Z,4.37
2023-05-11T03:45:17.627Z,4.52
2023-05-11T03:50:24.175Z,4.77
2023-05-11T03:55:29.843Z,5.16
2023-05-11T04:00:37.191Z,5.48
2023-05-11T04:05:43.528Z,5.81
2023-05-11T04:10:50.985Z,6.20
2023-05-11T04:15:56.352Z,7.46
2023-05-11T04:21:02.051Z,10.64
2023-05-11T04:26:07.628Z,14.18
2023-05-11T04:31:13.303Z,16.93
2023-05-11T04:36:19.002Z,19.42
2023-05-11T04:41:24.683Z,21.44
2023-05-11T04:46:32.099Z,23.15
2023-05-11T04:51:40.014Z,24.39
2023-05-11T04:56:45.934Z,25.23
2023-05-11T05:01:53.102Z,25.63
2023-05-11T05:07:00.662Z,26.76
2023-05-11T05:12:06.777Z,27.91
2023-05-11T05:17:14.125Z,28.76
2023-05-11T05:22:19.866Z,29.24
2023-05-11T05:27:25.784Z,30.14
2023-05-11T05:32:31.923Z,30.74
2023-05-11T05:37:38.253Z,31.27
2023-05-11T05:42:45.984Z,31.38
2023-05-11T05:47:54.427Z,31.94
2023-05-11T05:53:00.770Z,32.24
2023-05-11T05:58:08.313Z,32.40
2023-05-11T06:03:14.092Z,32.97
2023-05-11T06:08:19.864Z,32.97
2023-05-11T06:13:25.879Z,33.63
2023-05-11T06:18:31.886Z,33.72
2023-05-11T06:23:38.628Z,33.62
2023-05-11T06:28:44.363Z,33.79
2023-05-11T06:33:52.466Z,33.82
2023-05-11T06:39:00.886Z,34.34
2023-05-11T06:44:06.950Z,34.63
2023-05-11T06:49:16.507Z,34.33
2023-05-11T06:54:23.342Z,33.55
2023-05-11T06:59:28.897Z,33.70
2023-05-11T07:04:34.425Z,34.12
2023-05-11T07:09:41.891Z,33.95
2023-05-11T07:14:47.988Z,34.38
2023-05-11T07:19:54.717Z,34.51
2023-05-11T07:25:01.574Z,34.41
2023-05-11T07:30:08.727Z,34.45
2023-05-11T07:35:15.340Z,34.56
2023-05-11T07:40:21.237Z,33.51
2023-05-11T07:45:27.006Z,33.06
2023-05-11T07:50:32.607Z,33.58
2023-05-11T07:55:38.027Z,33.70
2023-05-11T08:00:43.529Z,33.07
2023-05-11T08:05:49.139Z,32.45
2023-05-11T08:10:54.514Z,32.11
2023-05-11T08:15:59.921Z,31.83
2023-05-11T08:21:07.417Z,31.87
2023-05-11T08:26:12.881Z,32.22
2023-05-11T08:31:18.583Z,31.99
2023-05-11T08:36:24.132Z,32.13
2023-05-11T08:41:30.041Z,31.70
2023-05-11T08:46:39.892Z,31.65
2023-05-11T08:51:46.297Z,31.61
2023-05-11T08:56:52.644Z,31.42
2023-05-11T09:01:59.382Z,31.28
2023-05-11T09:07:04.969Z,30.70
2023-05-11T09:12:12.879Z,30.56
2023-05-11T09:17:18.217Z,30.72
2023-05-11T09:22:23.972Z,30.68
2023-05-11T09:27:29.731Z,30.35
2023-05-11T09:32:49.770Z,30.66
2023-05-11T09:38:04.610Z,30.77
2023-05-11T09:43:20.179Z,30.34
2023-05-11T09:48:31.878Z,30.30
2023-05-11T09:53:42.651Z,30.66
2023-05-11T09:58:51.044Z,30.40
2023-05-11T10:04:08.943Z,30.02
2023-05-11T10:09:25.725Z,30.21
2023-05-11T10:14:32.318Z,29.99
2023-05-11T10:19:38.135Z,29.81
2023-05-11T10:24:44.554Z,29.75
2023-05-11T10:29:51.048Z,29.07
2023-05-11T10:34:58.203Z,28.73
2023-05-11T10:40:04.859Z,28.48
2023-05-11T10:45:18.983Z,28.42
2023-05-11T10:50:46.017Z,28.20
2023-05-11T10:56:14.998Z,27.99
2023-05-11T11:01:40.471Z,27.72
2023-05-11T11:06:46.162Z,27.49
2023-05-11T11:11:51.841Z,27.30
2023-05-11T11:17:24.559Z,27.53
2023-05-11T11:22:46.961Z,26.74
2023-05-11T11:28:01.965Z,26.54
2023-05-11T11:33:33.584Z,26.13
2023-05-11T11:39:00.399Z,26.41
2023-05-11T11:44:19.949Z,25.81
2023-05-11T11:49:28.606Z,24.80
2023-05-11T11:54:40.718Z,24.67
2023-05-11T11:59:49.047Z,24.29
2023-05-11T12:05:00.177Z,24.07
2023-05-11T12:10:06.702Z,23.70
2023-05-11T12:15:24.516Z,23.15
2023-05-11T12:20:30.483Z,22.99
2023-05-11T12:25:35.874Z,22.80
2023-05-11T12:30:41.396Z,22.69
2023-05-11T12:35:51.479Z,22.37
2023-05-11T12:40:57.018Z,22.12
2023-05-11T12:46:03.812Z,22.17
2023-05-11T12:51:09.234Z,22.28
2023-05-11T12:56:14.811Z,22.05
2023-05-11T13:01:26.189Z,21.97
2023-05-11T13:06:32.782Z,22.07
2023-05-11T13:11:38.260Z,22.03
2023-05-11T13:16:54.159Z,21.78
2023-05-11T13:21:59.618Z,21.85
2023-05-11T13:27:05.678Z,21.60
2023-05-11T13:32:12.440Z,21.53
2023-05-11T13:37:18.142Z,21.49
2023-05-11T13:42:23.904Z,21.39
2023-05-11T13:47:29.804Z,21.27
2023-05-11T13:52:35.294Z,21.14
2023-05-11T13:57:40.936Z,20.83
2023-05-11T14:02:48.301Z,20.66
2023-05-11T14:07:54.172Z,20.53
2023-05-11T14:13:00.308Z,20.52
2023-05-11T14:18:07.939Z,20.44
2023-05-11T14:23:13.536Z,20.25
2023-05-11T14:28:19.060Z,20.05
2023-05-11T14:33:25.949Z,19.89
2023-05-11T14:38:31.890Z,19.81
2023-05-11T14:43:39.885Z,19.85
2023-05-11T14:48:45.554Z,19.78
2023-05-11T14:53:51.634Z,19.61
2023-05-11T14:58:57.770Z,19.49
2023-05-11T15:04:05.424Z,19.40
2023-05-11T15:09:11.758Z,19.26
2023-05-11T15:14:17.586Z,19.12
2023-05-11T15:19:26.319Z,19.11
2023-05-11T15:24:31.755Z,19.03
2023-05-11T15:29:38.776Z,19.04
2023-05-11T15:34:58.715Z,19.02
2023-05-11T15:40:10.127Z,19.00
2023-05-11T15:45:16.034Z,18.94
2023-05-11T15:50:22.037Z,18.83
2023-05-11T15:55:28.033Z,18.73
2023-05-11T16:00:34.100Z,18.71
2023-05-11T16:05:39.973Z,18.61
2023-05-11T16:10:45.780Z,18.54
2023-05-11T16:15:51.599Z,18.46
2023-05-11T16:20:57.565Z,18.35
2023-05-11T16:26:03.965Z,18.26
2023-05-11T16:31:09.523Z,18.15
2023-05-11T16:36:15.071Z,18.06
2023-05-11T16:41:20.612Z,18.00
2023-05-11T16:46:26.128Z,17.95
2023-05-11T16:51:31.762Z,17.88
2023-05-11T16:56:37.304Z,17.83
2023-05-11T17:01:46.857Z,17.77
2023-05-11T17:06:52.645Z,17.70
2023-05-11T17:11:58.552Z,17.62
2023-05-11T17:17:06.851Z,17.54
2023-05-11T17:22:12.529Z,17.45
2023-05-11T17:27:18.086Z,17.34
2023-05-11T17:32:23.892Z,17.24
2023-05-11T17:37:32.207Z,17.13
2023-05-11T17:42:38.706Z,17.00
2023-05-11T17:47:44.284Z,16.87
2023-05-11T17:52:50.989Z,16.73
2023-05-11T17:57:56.921Z,16.59
2023-05-11T18:03:02.637Z,16.42
2023-05-11T18:08:09.372Z,16.24
2023-05-11T18:13:17.449Z,16.03
2023-05-11T18:18:26.501Z,15.78
2023-05-11T18:23:35.305Z,15.52
2023-05-11T18:28:40.740Z,15.25
2023-05-11T18:33:46.724Z,15.03
2023-05-11T18:38:53.932Z,14.79
2023-05-11T18:44:06.459Z,14.58
2023-05-11T18:49:15.901Z,14.36
2023-05-11T18:54:21.231Z,14.16
2023-05-11T18:59:26.821Z,13.98
2023-05-11T19:04:32.222Z,13.81
2023-05-11T19:09:37.573Z,13.69
2023-05-11T19:14:43.434Z,13.56
2023-05-11T19:19:49.687Z,13.45
2023-05-11T19:24:55.043Z,13.30
2023-05-11T19:30:00.913Z,13.16
2023-05-11T19:35:12.169Z,13.01
2023-05-11T19:45:42.227Z,12.76
2023-05-11T19:50:49.533Z,12.64
2023-05-11T19:55:55.711Z,12.56
2023-05-11T20:01:01.276Z,12.49
2023-05-11T20:06:08.411Z,12.40
2023-05-11T20:11:14.534Z,12.34
2023-05-11T20:16:20.468Z,12.28
2023-05-11T20:21:26.463Z,12.22
2023-05-11T20:26:32.589Z,12.18
2023-05-11T20:31:43.299Z,12.12
2023-05-11T20:36:53.003Z,12.05
2023-05-11T20:42:00.109Z,11.95
2023-05-11T20:47:06.768Z,11.84
2023-05-11T20:52:13.721Z,11.72
2023-05-11T20:57:21.655Z,11.66
2023-05-11T21:02:27.309Z,11.56
2023-05-11T21:07:33.002Z,11.45
2023-05-11T21:12:38.493Z,11.37
2023-05-11T21:17:43.965Z,11.32
2023-05-11T21:22:49.434Z,11.24
2023-05-11T21:28:01.126Z,11.15
2023-05-11T21:33:06.767Z,11.04
2023-05-11T21:38:15.031Z,10.96
2023-05-11T21:43:20.612Z,10.87
2023-05-11T21:48:26.192Z,10.77
2023-05-11T21:53:31.875Z,10.66
2023-05-11T21:58:37.403Z,10.54
2023-05-11T22:03:42.863Z,10.44
2023-05-11T22:08:48.345Z,10.34
2023-05-11T22:13:53.701Z,10.24
2023-05-11T22:18:59.154Z,10.15
2023-05-11T22:24:05.013Z,10.07
2023-05-11T22:29:13.368Z,9.95
2023-05-11T22:34:19.509Z,9.85
2023-05-11T22:39:25.077Z,9.75
2023-05-11T22:44:30.438Z,9.65
2023-05-11T22:49:35.843Z,9.58
2023-05-11T22:54:41.509Z,9.50
2023-05-11T22:59:46.939Z,9.42
2023-05-11T23:04:53.123Z,9.34
2023-05-11T23:09:58.542Z,9.30
2023-05-11T23:15:05.136Z,9.25
2023-05-11T23:20:12.273Z,9.20
2023-05-11T23:25:18.444Z,9.17
2023-05-11T23:30:24.259Z,9.13
2023-05-11T23:35:29.572Z,9.11
2023-05-11T23:40:35.071Z,9.10
2023-05-11T23:45:40.702Z,9.08
2023-05-11T23:50:46.353Z,9.08
2023-05-11T23:55:51.725Z,9.09
